Kechi, Kansas
Current Conditions -  °F | °C
As of 5:54 AM on Tuesday 27 Jan 2015 (Local Time) from KAAO Reporting Station
Clear Clear  
Wind Chill: 34°   Ceiling: Unl
Heat Index: 34°   Visibility: 10mi
Dew Point: 29°   Wind: 3mph
Humidity: 82%   Direction: 120°ESE
Pressure: 30.1"   Gusts: NA
Location:  37.8°N, 97.28°W
Report Text: KAAO 271154Z AUTO 12003KT 10SM CLR 01/M02 A3010 RMK AO2 SLP197 T00111017 10089 20000 50004
Loading
Personal Weather Stations






























Interactive Weather Map New forecast layout! Learn more

10-Day Weather Forecast

Advertisements
Track Severe Weather on mobile